Scio, Ohio
Current Conditions -  °F | °C
As of 8:18 PM on Friday 31 Oct 2014 (Local Time) from KPHD Reporting Station
Light Rain Light Rain  
Wind Chill: 45°   Ceiling: 2400
Heat Index: 45°   Visibility: 6mi
Dew Point: 41°   Wind: 0mph
Humidity: 86%   Direction: NA
Pressure: 29.9"   Gusts: NA
Location:  40.4°N, 81.08°W
Report Text: KPHD 010018Z AUTO 00000KT 6SM -RA BR SCT019 BKN024 OVC038 07/05 A2990 RMK AO2 P0001 T00720050
Loading
Personal Weather Stations






























Interactive Weather Map
Tropical Storm Tracking
New forecast layout! Learn more

10-Day Weather Forecast

Advertisements
Track Severe Weather on mobile